Time;durP1;ratioP1;P1;durP2;ratioP2;P2;SDS_P1;SDS_P2;PMS_P1;PMS_P2;Temp;Humidity;BMP_temperature;BMP_pressure;BME280_temperature;BME280_humidity;BME280_pressure;Samples;Min_cycle;Max_cycle;Signal;HPM_P1;HPM_P2
2023/08/03 00:01:59;;;;;;;3.10;1.10;;;;;;;20.37;57.32;98227.11;218199;1258;125356;-67
2023/08/03 00:07:04;;;;;;;3.90;1.80;;;;;;;20.38;57.44;98238.55;218199;1258;139604;-66
2023/08/03 00:12:10;;;;;;;2.40;2.10;;;;;;;20.41;57.69;98230.15;218804;1257;139655;-68
2023/08/03 00:17:15;;;;;;;7.10;2.20;;;;;;;20.43;57.81;98229.68;218256;1262;140614;-67
2023/08/03 00:22:19;;;;;;;4.70;2.30;;;;;;;20.43;58.04;98218.38;218285;1262;139317;-66
2023/08/03 00:27:25;;;;;;;2.10;2.00;;;;;;;20.43;58.11;98221.24;218523;1258;138769;-66
2023/08/03 00:32:29;;;;;;;2.10;1.90;;;;;;;20.42;58.23;98211.57;219104;1259;138583;-67
2023/08/03 00:37:33;;;;;;;3.20;1.50;;;;;;;20.41;58.50;98193.05;217818;1261;139750;-66
2023/08/03 00:42:38;;;;;;;2.90;2.30;;;;;;;20.40;58.63;98161.99;218420;1257;139069;-67
2023/08/03 00:47:42;;;;;;;4.90;2.20;;;;;;;20.38;58.84;98161.70;219318;1258;139445;-69
2023/08/03 00:52:47;;;;;;;3.70;2.00;;;;;;;20.35;59.18;98162.50;218547;1257;138846;-66
2023/08/03 00:57:51;;;;;;;4.60;1.70;;;;;;;20.32;59.44;98166.34;220302;1258;139724;-67
2023/08/03 01:02:56;;;;;;;1.90;1.60;;;;;;;20.26;59.96;98168.67;219666;1257;139850;-68
2023/08/03 01:08:01;;;;;;;4.30;1.60;;;;;;;20.18;60.43;98173.52;218690;1260;529853;-67
2023/08/03 01:13:05;;;;;;;2.10;1.90;;;;;;;20.14;60.67;98194.96;218067;1260;139727;-66
2023/08/03 01:18:10;;;;;;;1.90;1.70;;;;;;;20.12;60.86;98212.58;217588;1260;140000;-68
2023/08/03 01:23:15;;;;;;;6.40;1.90;;;;;;;20.09;61.20;98215.75;218322;1257;139522;-67
2023/08/03 01:28:20;;;;;;;1.80;1.70;;;;;;;20.05;61.53;98208.70;218067;1258;139597;-67
2023/08/03 01:33:24;;;;;;;3.50;1.60;;;;;;;20.01;61.85;98231.67;218491;1257;139428;-66
2023/08/03 01:38:30;;;;;;;1.80;1.70;;;;;;;19.99;62.02;98221.92;218148;1257;140291;-67
2023/08/03 01:43:33;;;;;;;1.70;1.60;;;;;;;19.98;62.17;98217.44;218095;1257;139996;-66
2023/08/03 01:48:38;;;;;;;3.60;2.10;;;;;;;19.94;62.41;98193.17;218546;1257;139495;-64
2023/08/03 01:53:42;;;;;;;3.80;2.10;;;;;;;19.89;62.57;98132.58;218810;1257;139623;-64
2023/08/03 01:58:45;;;;;;;5.80;1.90;;;;;;;19.86;62.74;98182.16;217969;1257;225806;-63
2023/08/03 02:03:50;;;;;;;1.50;1.40;;;;;;;19.85;62.97;98194.27;217267;1257;139603;-66
2023/08/03 02:08:55;;;;;;;2.00;1.80;;;;;;;19.80;63.29;98200.13;218064;1257;139766;-66
2023/08/03 02:14:01;;;;;;;2.10;1.60;;;;;;;19.76;63.51;98177.70;218466;1257;139552;-67
2023/08/03 02:19:05;;;;;;;1.40;1.30;;;;;;;19.73;63.89;98181.80;218767;1257;139667;-66
2023/08/03 02:24:09;;;;;;;3.20;1.70;;;;;;;19.70;64.13;98134.24;218616;1257;139684;-66
2023/08/03 02:29:14;;;;;;;1.40;1.30;;;;;;;19.68;64.41;98148.48;217293;1260;140283;-66
2023/08/03 02:34:19;;;;;;;2.20;1.70;;;;;;;19.69;64.74;98163.87;218567;1257;139602;-66
2023/08/03 02:39:24;;;;;;;2.00;1.60;;;;;;;19.69;65.00;98155.05;218525;1257;139804;-66
2023/08/03 02:44:28;;;;;;;1.60;1.50;;;;;;;19.69;65.27;98143.64;219229;1257;140054;-66
2023/08/03 02:49:33;;;;;;;1.80;1.50;;;;;;;19.66;65.57;98142.92;218551;1257;140532;-66
2023/08/03 02:54:38;;;;;;;3.80;1.60;;;;;;;19.66;65.81;98163.16;219109;1257;140229;-66
2023/08/03 02:59:43;;;;;;;2.30;1.70;;;;;;;19.66;66.03;98156.89;220255;1257;140128;-67
2023/08/03 03:04:49;;;;;;;2.10;1.50;;;;;;;19.68;66.27;98174.82;220272;1257;139370;-66
2023/08/03 03:09:54;;;;;;;1.60;1.50;;;;;;;19.70;66.50;98175.34;220229;1257;140536;-66
2023/08/03 03:14:59;;;;;;;2.70;1.70;;;;;;;19.72;66.62;98187.54;219195;1257;141034;-66
2023/08/03 03:20:04;;;;;;;1.60;1.40;;;;;;;19.73;66.87;98208.27;218169;1257;141111;-66
2023/08/03 03:25:09;;;;;;;;;;;;;;;19.75;67.04;98214.45;217627;1262;139583;-66
2023/08/03 03:30:16;;;;;;;1.60;1.50;;;;;;;19.74;67.33;98210.70;219653;1257;125838;-66
2023/08/03 03:35:21;;;;;;;1.50;1.40;;;;;;;19.74;67.55;98223.84;217645;1257;139516;-66
2023/08/03 03:40:25;;;;;;;3.60;1.60;;;;;;;19.72;67.80;98239.83;217583;1258;139461;-66
2023/08/03 03:45:29;;;;;;;3.00;1.60;;;;;;;19.71;67.97;98248.30;217961;1257;153061;-66
2023/08/03 03:50:34;;;;;;;2.80;1.10;;;;;;;19.70;68.20;98244.98;217357;1259;139370;-65
2023/08/03 03:55:38;;;;;;;2.40;1.60;;;;;;;19.68;68.43;98250.02;218466;1257;141076;-66
2023/08/03 04:00:43;;;;;;;1.80;1.60;;;;;;;19.70;68.64;98250.49;218255;1257;139341;-66
2023/08/03 04:05:48;;;;;;;1.50;1.40;;;;;;;19.78;68.69;98249.89;218028;1257;139443;-66
2023/08/03 04:10:53;;;;;;;2.10;1.80;;;;;;;19.92;68.77;98251.27;217737;1257;139440;-66
2023/08/03 04:15:57;;;;;;;2.20;1.40;;;;;;;20.08;68.82;98257.58;218178;1257;140591;-66
2023/08/03 04:21:02;;;;;;;3.20;1.60;;;;;;;20.18;68.77;98249.98;217825;1258;139417;-66
2023/08/03 04:26:07;;;;;;;1.30;1.30;;;;;;;20.26;68.74;98273.91;218110;1257;139336;-66
2023/08/03 04:31:12;;;;;;;3.50;1.80;;;;;;;20.41;68.62;98299.11;218537;1257;151014;-66
2023/08/03 04:36:17;;;;;;;2.00;0.80;;;;;;;20.50;68.59;98294.64;218069;1257;139437;-66
2023/08/03 04:41:21;;;;;;;1.50;1.30;;;;;;;20.58;68.49;98295.21;218335;1257;139307;-66
2023/08/03 04:46:27;;;;;;;3.80;1.20;;;;;;;20.62;68.58;98270.22;217744;1257;139593;-66
2023/08/03 04:51:31;;;;;;;1.50;1.40;;;;;;;20.54;68.61;98267.48;218547;1257;139334;-66
2023/08/03 04:56:36;;;;;;;2.20;1.70;;;;;;;20.59;68.84;98272.73;220275;1257;141882;-66
2023/08/03 05:01:39;;;;;;;1.60;1.50;;;;;;;20.82;68.83;98288.59;218909;1257;140293;-66
2023/08/03 05:06:44;;;;;;;2.70;1.50;;;;;;;21.06;68.44;98265.36;220400;1256;140037;-66
2023/08/03 05:11:49;;;;;;;1.80;1.20;;;;;;;21.27;68.13;98318.08;219114;1257;139504;-65
2023/08/03 05:16:54;;;;;;;2.40;1.60;;;;;;;21.56;67.80;98312.41;219619;1257;139555;-66
2023/08/03 05:22:01;;;;;;;2.40;1.20;;;;;;;21.71;67.60;98331.85;219128;1256;140850;-66
2023/08/03 05:27:09;;;;;;;1.80;1.40;;;;;;;21.67;67.37;98334.66;217990;1257;140432;-66
2023/08/03 05:32:14;;;;;;;4.20;1.80;;;;;;;21.57;67.34;98354.13;218328;1257;139859;-66
2023/08/03 05:37:19;;;;;;;6.80;1.70;;;;;;;21.49;67.35;98326.77;218411;1258;140996;-66
2023/08/03 05:42:29;;;;;;;3.00;1.50;;;;;;;21.39;67.46;98316.39;218201;1257;139693;-66
2023/08/03 05:47:38;;;;;;;1.90;1.60;;;;;;;21.28;67.56;98371.48;218308;1256;140519;-66
2023/08/03 05:52:44;;;;;;;1.30;1.20;;;;;;;21.22;67.68;98368.31;217894;1257;139788;-66
2023/08/03 05:57:49;;;;;;;2.00;1.60;;;;;;;21.04;67.83;98335.36;217664;1256;139680;-66
2023/08/03 06:02:57;;;;;;;2.50;1.80;;;;;;;20.88;68.09;98254.42;218266;1257;139587;-66
2023/08/03 06:08:24;;;;;;;2.80;1.40;;;;;;;20.89;68.39;98352.20;218466;1257;140239;-65
2023/08/03 06:13:34;;;;;;;1.90;1.80;;;;;;;20.84;68.39;98349.64;217360;1260;140180;-66
2023/08/03 06:18:50;;;;;;;3.40;1.60;;;;;;;20.79;68.66;98385.52;217945;1257;139446;-66
2023/08/03 06:23:57;;;;;;;2.00;1.50;;;;;;;20.79;68.83;98388.63;219127;1256;143091;-66
2023/08/03 06:29:05;;;;;;;1.60;1.50;;;;;;;20.85;68.95;98366.08;217606;1256;140536;-65
2023/08/03 06:34:14;;;;;;;9.30;2.50;;;;;;;20.89;68.88;98278.37;219620;1257;139804;-66
2023/08/03 06:39:18;;;;;;;1.90;1.60;;;;;;;20.94;69.00;98421.88;219139;1257;139811;-66
2023/08/03 06:44:22;;;;;;;1.50;1.40;;;;;;;20.94;68.79;98435.71;218987;1257;139374;-66
2023/08/03 06:49:27;;;;;;;2.40;1.80;;;;;;;20.89;68.69;98374.72;218143;1259;139939;-66
2023/08/03 06:54:32;;;;;;;3.80;1.90;;;;;;;20.78;68.61;98330.95;220285;1258;139687;-66
2023/08/03 06:59:37;;;;;;;6.90;2.30;;;;;;;20.79;68.87;98300.17;220237;1257;139783;-66
2023/08/03 07:04:42;;;;;;;4.90;2.40;;;;;;;20.92;69.05;98390.45;218349;1258;140838;-66
2023/08/03 07:09:50;;;;;;;1.70;1.60;;;;;;;21.01;68.96;98422.13;219439;1259;139453;-66
2023/08/03 07:14:56;;;;;;;2.10;1.50;;;;;;;21.17;68.87;98401.38;217766;1257;141033;-66
2023/08/03 07:20:02;;;;;;;2.20;1.80;;;;;;;21.19;68.39;98412.34;218625;1257;139606;-66
2023/08/03 07:25:08;;;;;;;1.80;1.50;;;;;;;21.05;68.25;98444.14;218340;1258;139604;-66
2023/08/03 07:30:12;;;;;;;2.00;1.90;;;;;;;20.94;68.14;98418.63;218771;1257;140821;-66
2023/08/03 07:35:17;;;;;;;1.30;1.30;;;;;;;20.98;68.22;98432.45;218553;1262;140935;-66
2023/08/03 07:40:23;;;;;;;;;;;;;;;21.00;68.03;98440.20;218630;1258;140342;-66
2023/08/03 07:45:30;;;;;;;2.00;1.30;;;;;;;20.99;67.85;98433.73;218165;1257;126504;-66
2023/08/03 07:50:38;;;;;;;1.70;1.60;;;;;;;21.02;67.83;98436.27;217976;1259;139993;-67
2023/08/03 07:55:44;;;;;;;1.50;1.40;;;;;;;21.02;67.60;98443.89;217407;1261;140519;-66
2023/08/03 08:00:49;;;;;;;;;;;;;;;20.95;67.38;98494.27;218713;1259;140724;-66
2023/08/03 08:05:53;;;;;;;2.50;1.20;;;;;;;20.87;67.47;98507.98;218395;1257;138282;-66
2023/08/03 08:10:58;;;;;;;2.10;1.40;;;;;;;20.90;67.47;98465.61;217681;1257;140419;-65
2023/08/03 08:16:16;;;;;;;2.10;1.40;;;;;;;20.94;67.22;98453.91;218985;1261;141027;-66
2023/08/03 08:21:22;;;;;;;3.80;1.80;;;;;;;20.93;67.01;98482.52;217782;1257;139487;-65
2023/08/03 08:26:29;;;;;;;2.30;1.50;;;;;;;20.91;66.96;98459.99;219301;1256;139390;-66
2023/08/03 08:31:34;;;;;;;2.90;1.50;;;;;;;20.94;66.82;98413.68;218880;1257;140107;-66
2023/08/03 08:36:44;;;;;;;2.00;1.60;;;;;;;20.95;66.65;98466.96;219754;1257;139505;-66
2023/08/03 08:41:50;;;;;;;2.20;1.70;;;;;;;20.96;66.41;98442.52;218852;1257;139616;-66
2023/08/03 08:46:57;;;;;;;5.00;2.20;;;;;;;20.94;66.21;98422.73;220176;1256;140167;-66
2023/08/03 08:52:08;;;;;;;3.20;1.20;;;;;;;20.97;66.31;98396.98;218940;1257;139468;-67
2023/08/03 08:57:13;;;;;;;1.90;1.30;;;;;;;21.12;66.39;98466.44;218449;1258;140050;-66
2023/08/03 09:02:25;;;;;;;1.50;1.20;;;;;;;21.13;66.16;98478.25;217646;1258;139696;-65
2023/08/03 09:07:29;;;;;;;3.30;1.40;;;;;;;21.15;66.02;98497.54;218881;1259;139791;-66
2023/08/03 09:12:35;;;;;;;3.00;1.40;;;;;;;21.10;65.83;98464.32;218069;1259;140240;-66
2023/08/03 09:17:39;;;;;;;2.00;1.10;;;;;;;21.04;65.89;98490.41;218664;1259;139987;-66
2023/08/03 09:22:45;;;;;;;1.50;1.40;;;;;;;21.11;65.84;98500.88;217566;1260;142569;-66
2023/08/03 09:27:56;;;;;;;1.40;1.30;;;;;;;21.24;65.63;98492.14;218225;1259;141410;-66
2023/08/03 09:33:17;;;;;;;4.00;1.60;;;;;;;21.24;65.18;98502.20;217684;1259;139562;-66
2023/08/03 09:38:35;;;;;;;1.70;1.60;;;;;;;21.14;64.99;98485.28;218796;1259;140790;-66
2023/08/03 09:43:49;;;;;;;2.10;1.00;;;;;;;21.03;64.84;98471.29;218005;1259;139516;-66
2023/08/03 09:49:02;;;;;;;3.00;1.20;;;;;;;21.08;64.97;98451.33;218282;1259;140669;-66
2023/08/03 09:54:35;;;;;;;1.80;1.50;;;;;;;21.03;64.89;98478.61;217103;1258;139395;-66
2023/08/03 09:59:54;;;;;;;1.60;1.40;;;;;;;21.01;65.04;98477.02;217746;1259;139440;-66
2023/08/03 10:05:10;;;;;;;1.80;1.20;;;;;;;21.12;64.94;98433.79;218291;1257;140440;-66
2023/08/03 10:10:39;;;;;;;3.20;1.80;;;;;;;21.23;64.89;98421.40;218489;1257;140107;-66
2023/08/03 10:15:53;;;;;;;1.60;1.40;;;;;;;21.35;64.95;98492.70;218482;1257;139543;-66
2023/08/03 10:20:59;;;;;;;2.70;1.30;;;;;;;21.46;64.62;98510.08;218440;1257;140828;-66
2023/08/03 10:26:10;;;;;;;1.70;1.40;;;;;;;21.65;64.84;98489.27;218591;1257;140365;-67
2023/08/03 10:31:22;;;;;;;2.30;2.00;;;;;;;21.98;64.59;98509.48;219365;1257;141116;-67
2023/08/03 10:36:34;;;;;;;2.70;1.70;;;;;;;22.20;64.22;98541.75;217895;1261;140635;-67
2023/08/03 10:41:54;;;;;;;5.90;1.70;;;;;;;22.30;63.86;98529.66;218774;1256;139616;-67
2023/08/03 10:47:00;;;;;;;4.70;1.60;;;;;;;22.18;63.42;98544.02;219894;1257;140057;-68
2023/08/03 10:52:19;;;;;;;2.00;1.40;;;;;;;21.97;63.48;98545.57;220134;1260;140304;-67
2023/08/03 10:57:29;;;;;;;1.60;1.50;;;;;;;21.86;63.53;98512.66;220144;1257;141145;-67
2023/08/03 11:02:37;;;;;;;4.40;1.30;;;;;;;21.71;63.74;98522.01;219688;1257;140194;-68
2023/08/03 11:07:46;;;;;;;6.00;1.80;;;;;;;21.69;64.07;98516.45;218024;1257;140442;-67
2023/08/03 11:12:55;;;;;;;1.90;1.30;;;;;;;21.83;64.17;98515.57;219183;1257;139353;-67
2023/08/03 11:18:13;;;;;;;2.50;1.40;;;;;;;21.90;64.04;98500.44;217594;1257;139566;-67
2023/08/03 11:23:21;;;;;;;5.20;1.20;;;;;;;22.02;63.94;98491.16;218353;1260;141445;-67
2023/08/03 11:28:31;;;;;;;5.60;2.00;;;;;;;22.51;63.85;98496.91;217654;1257;139592;-66
2023/08/03 11:33:42;;;;;;;6.40;1.50;;;;;;;22.62;63.54;98487.92;218282;1260;140602;-67
2023/08/03 11:38:53;;;;;;;2.50;1.00;;;;;;;22.66;63.01;98486.34;218578;1257;139474;-67
2023/08/03 11:44:06;;;;;;;7.80;1.70;;;;;;;22.54;62.67;98483.38;218080;1259;160674;-67
2023/08/03 11:49:13;;;;;;;4.20;1.80;;;;;;;22.63;62.64;98500.52;217607;1261;141061;-67
2023/08/03 11:54:27;;;;;;;3.20;2.30;;;;;;;22.77;62.33;98494.12;218278;1260;140616;-67
2023/08/03 11:59:32;;;;;;;4.10;1.10;;;;;;;23.26;62.17;98492.73;217530;1260;139387;-67
2023/08/03 12:04:39;;;;;;;3.80;1.40;;;;;;;23.89;61.39;98492.27;218318;1257;142420;-68
2023/08/03 12:09:54;;;;;;;3.10;1.40;;;;;;;24.35;60.38;98487.88;218123;1260;139025;-64
2023/08/03 12:14:59;;;;;;;3.80;1.10;;;;;;;24.67;59.07;98494.25;217204;1260;139570;-65
2023/08/03 12:20:08;;;;;;;2.40;1.60;;;;;;;25.01;58.11;98491.45;217981;1257;139820;-67
2023/08/03 12:25:16;;;;;;;1.90;1.50;;;;;;;25.40;57.53;98487.73;218941;1257;139181;-67
2023/08/03 12:30:26;;;;;;;2.60;1.30;;;;;;;25.40;56.14;98499.66;218695;1257;138709;-68
2023/08/03 12:35:33;;;;;;;2.60;1.10;;;;;;;25.06;55.27;98495.76;217427;1257;138958;-67
2023/08/03 12:40:39;;;;;;;1.60;1.40;;;;;;;24.74;55.18;98501.41;219713;1257;140304;-66
2023/08/03 12:45:44;;;;;;;2.40;1.00;;;;;;;24.64;55.05;98503.69;220192;1257;139109;-68
2023/08/03 12:50:53;;;;;;;5.10;1.60;;;;;;;24.77;55.20;98508.27;220356;1256;139833;-68
2023/08/03 12:56:00;;;;;;;1.90;1.10;;;;;;;25.09;54.58;98501.58;220256;1260;218460;-69
2023/08/03 13:01:07;;;;;;;2.00;1.20;;;;;;;24.99;53.82;98496.02;219913;1257;160870;-65
2023/08/03 13:06:15;;;;;;;3.00;1.20;;;;;;;25.21;54.22;98501.90;217359;1261;794516;-67
2023/08/03 13:11:28;;;;;;;3.60;1.20;;;;;;;25.42;53.35;98501.26;219182;1259;138770;-68
2023/08/03 13:16:35;;;;;;;1.40;0.90;;;;;;;25.36;52.97;98507.31;217392;1258;138997;-66
2023/08/03 13:21:44;;;;;;;11.50;1.60;;;;;;;25.38;52.63;98507.20;218342;1256;139111;-68
2023/08/03 13:26:53;;;;;;;1.60;0.80;;;;;;;25.64;52.31;98504.47;217758;1257;141356;-65
2023/08/03 13:32:00;;;;;;;4.60;1.10;;;;;;;25.81;51.97;98503.13;218092;1261;139957;-67
2023/08/03 13:37:09;;;;;;;6.10;1.40;;;;;;;25.50;51.61;98506.86;217738;1259;139629;-65
2023/08/03 13:42:16;;;;;;;4.50;1.00;;;;;;;25.22;51.19;98512.50;218208;1259;138757;-69
2023/08/03 13:47:22;;;;;;;4.50;1.30;;;;;;;25.09;51.50;98518.73;217733;1257;138880;-66
2023/08/03 13:52:27;;;;;;;4.10;0.90;;;;;;;25.01;51.52;98517.02;217589;1262;138704;-65
2023/08/03 13:57:37;;;;;;;3.20;1.00;;;;;;;25.00;51.24;98516.70;217635;1261;139557;-66
2023/08/03 14:02:44;;;;;;;4.70;1.30;;;;;;;25.10;51.40;98512.73;218013;1259;138874;-66
2023/08/03 14:07:53;;;;;;;0.90;0.90;;;;;;;25.10;51.36;98509.00;217619;1262;138881;-68
2023/08/03 14:13:03;;;;;;;3.40;0.90;;;;;;;25.19;51.09;98516.98;217724;1260;245427;-67
2023/08/03 14:18:10;;;;;;;3.30;1.30;;;;;;;25.43;50.97;98512.73;217350;1260;140276;-68
2023/08/03 14:23:19;;;;;;;3.90;1.50;;;;;;;25.60;50.84;98504.64;218379;1258;139808;-69
2023/08/03 14:28:33;;;;;;;3.80;1.30;;;;;;;25.58;50.47;98508.10;218997;1258;138827;-69
2023/08/03 14:33:42;;;;;;;3.40;1.00;;;;;;;25.51;50.01;98507.20;219700;1259;140943;-69
2023/08/03 14:38:49;;;;;;;1.80;1.30;;;;;;;25.42;50.03;98516.23;217576;1262;138865;-69
2023/08/03 14:43:56;;;;;;;2.50;0.90;;;;;;;25.46;50.24;98526.13;219349;1260;139645;-70
2023/08/03 14:49:08;;;;;;;2.10;1.30;;;;;;;25.29;49.96;98538.81;220062;1260;244793;-69
2023/08/03 14:54:18;;;;;;;2.30;1.00;;;;;;;25.07;49.94;98535.81;219863;1258;140921;-69
2023/08/03 14:59:25;;;;;;;1.90;1.10;;;;;;;25.09;50.09;98531.27;219640;1259;139047;-70
2023/08/03 15:04:34;;;;;;;2.30;1.70;;;;;;;25.01;49.97;98533.99;218058;1262;139166;-65
2023/08/03 15:09:41;;;;;;;3.80;1.50;;;;;;;24.69;50.05;98531.61;217608;1262;139456;-66
2023/08/03 15:14:54;;;;;;;4.00;1.20;;;;;;;24.76;50.63;98534.23;219310;1259;139232;-68
2023/08/03 15:20:13;;;;;;;2.60;1.10;;;;;;;24.97;50.11;98534.30;217728;1262;243533;-66
2023/08/03 15:25:26;;;;;;;2.00;0.90;;;;;;;24.96;50.13;98532.41;217998;1259;139506;-68
2023/08/03 15:30:36;;;;;;;1.80;1.40;;;;;;;25.08;50.21;98530.48;217288;1259;139448;-69
2023/08/03 15:36:04;;;;;;;;;;;;;;;25.20;49.81;98539.12;217250;1260;139072;-68
2023/08/03 15:41:15;;;;;;;1.40;0.80;;;;;;;24.93;49.50;98545.11;217842;1260;127689;-68
2023/08/03 15:46:28;;;;;;;3.00;1.10;;;;;;;24.75;49.95;98553.75;217917;1260;138781;-67
2023/08/03 15:51:55;;;;;;;6.60;1.70;;;;;;;24.73;50.18;98554.44;217414;1261;139214;-69
2023/08/03 15:57:14;;;;;;;1.80;1.10;;;;;;;24.75;50.27;98554.70;217520;1260;138955;-71
2023/08/03 16:02:27;;;;;;;1.10;1.00;;;;;;;24.70;49.80;98555.52;218192;1257;139761;-68
2023/08/03 16:07:40;;;;;;;2.70;1.50;;;;;;;24.75;49.51;98557.98;218109;1257;139370;-68
2023/08/03 16:12:49;;;;;;;1.40;1.30;;;;;;;24.70;49.28;98563.70;218249;1261;139393;-68
2023/08/03 16:17:56;;;;;;;3.20;1.30;;;;;;;24.51;48.93;98566.15;217517;1261;140847;-69
2023/08/03 16:23:08;;;;;;;3.70;1.30;;;;;;;24.39;49.27;98565.97;217685;1262;235199;-66
2023/08/03 16:28:17;;;;;;;3.60;1.30;;;;;;;24.21;49.35;98567.92;218372;1260;139473;-66
2023/08/03 16:33:25;;;;;;;0.80;0.70;;;;;;;24.11;49.68;98571.66;219662;1258;140604;-65
2023/08/03 16:38:30;;;;;;;7.50;1.40;;;;;;;24.03;49.59;98573.25;220338;1261;139946;-66
2023/08/03 16:43:35;;;;;;;10.30;0.80;;;;;;;23.99;49.86;98578.97;219333;1260;139377;-69
2023/08/03 16:48:42;;;;;;;2.90;1.10;;;;;;;23.95;50.19;98585.55;220276;1257;139255;-69
2023/08/03 16:53:54;;;;;;;1.20;0.90;;;;;;;23.86;50.05;98585.34;220176;1260;139238;-65
2023/08/03 16:59:02;;;;;;;2.20;1.00;;;;;;;23.79;50.24;98592.49;219740;1262;139749;-64
2023/08/03 17:04:13;;;;;;;1.00;0.90;;;;;;;23.83;50.23;98600.74;218623;1257;139069;-64
2023/08/03 17:09:23;;;;;;;2.10;1.50;;;;;;;23.72;49.95;98603.57;218106;1258;138791;-64
2023/08/03 17:14:29;;;;;;;1.00;0.90;;;;;;;23.64;50.11;98609.89;217579;1257;138448;-74
2023/08/03 17:19:35;;;;;;;5.70;1.30;;;;;;;23.57;50.32;98604.88;218283;1257;139442;-71
2023/08/03 17:24:40;;;;;;;3.40;1.40;;;;;;;23.47;50.30;98606.47;218127;1260;138982;-69
2023/08/03 17:29:46;;;;;;;5.90;1.60;;;;;;;23.33;50.30;98610.71;218073;1262;139862;-67
2023/08/03 17:34:53;;;;;;;;;;;;;;;23.15;50.62;98616.66;217676;1262;139628;-66
2023/08/03 17:39:58;;;;;;;6.00;1.70;;;;;;;23.00;50.87;98623.67;218147;1257;126342;-67
2023/08/03 17:45:03;;;;;;;4.30;1.10;;;;;;;22.90;51.12;98629.89;217734;1258;139394;-70
2023/08/03 17:50:09;;;;;;;1.70;1.10;;;;;;;22.82;51.25;98626.23;218686;1262;140545;-67
2023/08/03 17:55:17;;;;;;;4.80;1.50;;;;;;;22.80;51.34;98631.09;217637;1258;139664;-66
2023/08/03 18:00:26;;;;;;;10.30;1.40;;;;;;;22.76;51.54;98642.43;218430;1261;139472;-68
2023/08/03 18:05:42;;;;;;;2.30;1.20;;;;;;;22.65;51.61;98639.52;217928;1261;139840;-67
2023/08/03 18:10:54;;;;;;;3.00;1.50;;;;;;;22.52;51.90;98646.70;217344;1261;138954;-71
2023/08/03 18:16:03;;;;;;;3.90;1.20;;;;;;;22.42;52.27;98653.20;219135;1262;140567;-72
2023/08/03 18:21:15;;;;;;;4.40;2.10;;;;;;;22.37;52.41;98661.48;218932;1262;138994;-69
2023/08/03 18:26:24;;;;;;;3.00;1.30;;;;;;;22.30;52.80;98670.52;220159;1257;140044;-67
2023/08/03 18:31:35;;;;;;;7.70;1.80;;;;;;;22.23;52.92;98682.85;217792;1263;138691;-68
2023/08/03 18:36:44;;;;;;;3.00;1.30;;;;;;;22.08;52.91;98689.55;220050;1259;139424;-70
2023/08/03 18:41:49;;;;;;;1.20;1.10;;;;;;;21.94;53.16;98696.54;219799;1257;138894;-70
2023/08/03 18:46:53;;;;;;;2.30;1.30;;;;;;;21.79;53.48;98701.92;218408;1257;139442;-72
2023/08/03 18:51:58;;;;;;;2.00;1.20;;;;;;;21.69;53.70;98713.26;220142;1257;140057;-68
2023/08/03 18:57:08;;;;;;;5.90;1.80;;;;;;;21.53;54.02;98719.64;218650;1262;139806;-68
2023/08/03 19:02:20;;;;;;;6.40;1.70;;;;;;;21.44;54.12;98734.73;218614;1258;139112;-65
2023/08/03 19:07:35;;;;;;;3.00;1.80;;;;;;;21.29;54.45;98741.36;217533;1261;138953;-69
2023/08/03 19:12:39;;;;;;;4.80;2.00;;;;;;;21.10;54.84;98746.26;218095;1258;140632;-65
2023/08/03 19:17:47;;;;;;;3.90;1.60;;;;;;;20.94;55.17;98758.78;217482;1260;139010;-69
2023/08/03 19:22:55;;;;;;;2.30;1.20;;;;;;;20.82;55.56;98767.21;217921;1257;138947;-69
2023/08/03 19:28:02;;;;;;;9.50;1.80;;;;;;;20.76;55.78;98776.27;217594;1260;139895;-65
2023/08/03 19:33:09;;;;;;;2.40;1.30;;;;;;;20.71;56.05;98782.47;217719;1257;139447;-66
2023/08/03 19:38:14;;;;;;;5.70;1.80;;;;;;;20.63;56.21;98785.16;217995;1257;139128;-68
2023/08/03 19:43:22;;;;;;;;;;;;;;;20.50;56.46;98789.35;217750;1260;139199;-68
2023/08/03 19:48:26;;;;;;;3.30;1.20;;;;;;;20.33;56.64;98792.90;218636;1258;125617;-70
2023/08/03 19:53:31;;;;;;;3.40;1.40;;;;;;;20.21;56.91;98807.86;217872;1258;139280;-72
2023/08/03 19:58:39;;;;;;;1.70;1.20;;;;;;;20.10;57.15;98809.48;218580;1257;139196;-74
2023/08/03 20:03:48;;;;;;;2.20;1.30;;;;;;;19.96;57.41;98813.33;218245;1258;139439;-72
2023/08/03 20:08:56;;;;;;;3.10;1.00;;;;;;;19.88;57.71;98812.03;219079;1257;140502;-73
2023/08/03 20:14:04;;;;;;;1.80;1.40;;;;;;;19.81;57.87;98821.81;217548;1259;139704;-71
2023/08/03 20:19:14;;;;;;;2.80;1.50;;;;;;;19.72;58.25;98820.97;219440;1258;233706;-70
2023/08/03 20:24:21;;;;;;;1.80;1.20;;;;;;;19.61;58.30;98822.95;218375;1260;138870;-71
2023/08/03 20:29:27;;;;;;;4.20;1.60;;;;;;;19.53;58.81;98827.80;219516;1257;139505;-71
2023/08/03 20:34:46;;;;;;;5.50;1.50;;;;;;;19.46;58.96;98837.37;219979;1261;139702;-72
2023/08/03 20:39:54;;;;;;;4.20;1.70;;;;;;;19.39;59.17;98838.11;219521;1258;140121;-69
2023/08/03 20:45:03;;;;;;;2.00;1.10;;;;;;;19.33;59.34;98843.27;218525;1257;140362;-70
2023/08/03 20:50:12;;;;;;;5.10;1.50;;;;;;;19.24;59.68;98852.12;219159;1260;139390;-71
2023/08/03 20:55:21;;;;;;;6.80;1.50;;;;;;;19.13;59.95;98854.09;218966;1257;139604;-70
2023/08/03 21:00:26;;;;;;;2.60;1.60;;;;;;;19.06;60.19;98864.33;218027;1257;140636;-68
2023/08/03 21:05:32;;;;;;;4.50;1.90;;;;;;;18.99;60.52;98873.53;219195;1257;141155;-68
2023/08/03 21:10:41;;;;;;;5.80;2.00;;;;;;;18.89;60.83;98880.46;218326;1257;139688;-70
2023/08/03 21:15:47;;;;;;;2.50;1.60;;;;;;;18.81;61.03;98880.89;217932;1260;140073;-70
2023/08/03 21:20:51;;;;;;;4.20;1.70;;;;;;;18.75;61.37;98887.29;218348;1256;139872;-69
2023/08/03 21:25:56;;;;;;;2.60;1.50;;;;;;;18.64;61.74;98890.27;218235;1257;141377;-69
2023/08/03 21:31:00;;;;;;;4.20;1.80;;;;;;;18.56;61.90;98894.64;217896;1257;151039;-69
2023/08/03 21:36:05;;;;;;;6.20;1.90;;;;;;;18.48;62.39;98903.38;218306;1258;139867;-68
2023/08/03 21:41:11;;;;;;;1.80;1.60;;;;;;;18.42;62.61;98898.44;218219;1256;141204;-69
2023/08/03 21:46:15;;;;;;;7.20;1.40;;;;;;;18.35;62.98;98908.58;219218;1257;139574;-69
2023/08/03 21:51:19;;;;;;;7.60;1.70;;;;;;;18.29;63.16;98914.58;218460;1257;139374;-71
2023/08/03 21:56:24;;;;;;;1.90;1.30;;;;;;;18.23;63.36;98917.07;218158;1257;139452;-70
2023/08/03 22:01:28;;;;;;;2.70;1.30;;;;;;;18.16;63.57;98920.45;218671;1257;139057;-71
2023/08/03 22:06:32;;;;;;;1.30;1.10;;;;;;;18.11;63.92;98921.42;218923;1257;139913;-70
2023/08/03 22:11:37;;;;;;;3.80;1.50;;;;;;;18.05;64.14;98926.70;217468;1258;139863;-70
2023/08/03 22:16:41;;;;;;;2.30;1.40;;;;;;;17.97;64.40;98932.59;220006;1257;140988;-70
2023/08/03 22:21:49;;;;;;;1.50;1.40;;;;;;;17.91;64.64;98936.64;219638;1257;139805;-70
2023/08/03 22:26:53;;;;;;;2.90;1.30;;;;;;;17.85;64.97;98934.46;220289;1257;151213;-70
2023/08/03 22:31:57;;;;;;;1.70;1.60;;;;;;;17.78;65.19;98950.92;220288;1256;139924;-70
2023/08/03 22:37:01;;;;;;;5.60;1.40;;;;;;;17.75;65.44;98949.86;219784;1257;140206;-70
2023/08/03 22:42:06;;;;;;;4.10;2.10;;;;;;;17.69;65.91;98948.70;218366;1257;140398;-67
2023/08/03 22:47:12;;;;;;;3.50;1.80;;;;;;;17.63;66.04;98958.34;218991;1257;140453;-68
2023/08/03 22:52:16;;;;;;;8.00;2.00;;;;;;;17.59;66.38;98962.55;219384;1257;140216;-67
2023/08/03 22:57:22;;;;;;;3.20;1.40;;;;;;;17.55;66.78;98961.02;218547;1257;139946;-67
2023/08/03 23:02:26;;;;;;;4.00;1.60;;;;;;;17.49;66.93;98965.70;218744;1257;140083;-68
2023/08/03 23:07:31;;;;;;;4.40;1.70;;;;;;;17.45;67.17;98968.63;217964;1257;139755;-67
2023/08/03 23:12:38;;;;;;;5.80;1.70;;;;;;;17.39;67.32;98972.16;217529;1260;140154;-67
2023/08/03 23:17:44;;;;;;;1.90;1.80;;;;;;;17.32;67.60;98979.67;217860;1257;139761;-71
2023/08/03 23:22:50;;;;;;;3.10;1.60;;;;;;;17.25;68.03;98973.92;217557;1260;139814;-72
2023/08/03 23:27:55;;;;;;;3.40;1.80;;;;;;;17.18;68.17;98977.91;218840;1257;139730;-70
2023/08/03 23:32:59;;;;;;;1.60;1.50;;;;;;;17.13;68.33;98983.55;218348;1257;139145;-69
2023/08/03 23:38:04;;;;;;;3.50;1.90;;;;;;;17.08;68.46;98977.83;218741;1258;139850;-69